Etusivu
METAR-TAF:

METAR-TAF

Lentoasemat :

Molde, Norja

Molden lentoasema

Leveyspiiri: 62-45N, Pituuspiiri: 007-16E, korkeus merenpinnasta: 0 m

Tämänhetkinen sää

Tämä raportti tehtiin 32 minuuttia sitten, kello 20.20 UTC
Tuuli 5 kn idästä/koillisesta
Lämpötila 12°C
Kosteus 94%
Ilmanpaine 1018 hPa
Näkyvyys 10 km tai enemmän

METAR: ENML 262020Z AUTO 07005KT 9999NDV OVC076/// 12/11 Q1018

Aika: 22:52 (20:52 UTC)

Sääennuste

Tämä raportti tehtiin 3 tuntia ja 52 minuuttia sitten, kello 17.00 UTC
Ennuste voimassa 26. päivästä klo 18 UTC - 26. päivään klo 22 UTC
Tuuli 7 kn lännestä
Näkyvyys 10 km tai enemmän
Muutamia pilviä 1000 ft:n korkeudessa
Hajonneita pilviä 5000 ft:n korkeudessa

TAF: ENML 261700Z 2618/2622 26007KT 9999 FEW010 BKN050

Säähavainnot ja -ennusteet yli 4000 lentoasemalta (METAR- ja TAF-raportit).

Käytössä olevat sääasemat on merkitty karttaan keltaisilla ja punaisilla pisteillä.

Aseta hiiri pisteen päälle nähdäksesi sääaseman nimen.

Klikkaa sitten nähdäksesi säähavainnot ja -ennusteet.

Kartan vaihtaminen: klikkaa mustalla rastilla varustettuja vihreitä pisteitä, niin voit zoomata sisään; viivalla varustettua vihreää pistettä, niin voit zoomata ulos tai vihreitä nuolia, niin pääset viereisille kartoille.


METAR-TAF: